Time;durP1;ratioP1;P1;durP2;ratioP2;P2;SDS_P1;SDS_P2;PMS_P1;PMS_P2;Temp;Humidity;BMP_temperature;BMP_pressure;BME280_temperature;BME280_humidity;BME280_pressure;Samples;Min_cycle;Max_cycle;Signal;HPM_P1;HPM_P2
2023/07/04 00:00:06;;;;;;;2.08;1.20;;;;;;;20.69;70.74;100481.31;20951179;28;20052;-67
2023/07/04 00:10:10;;;;;;;3.05;1.20;;;;;;;21.08;70.58;100555.69;20925868;28;20063;-67
2023/07/04 00:20:13;;;;;;;2.63;1.20;;;;;;;21.06;70.53;100554.16;20939620;28;20048;-67
2023/07/04 00:30:15;;;;;;;2.47;1.20;;;;;;;21.04;70.58;100557.03;20905705;28;20055;-67
2023/07/04 00:40:17;;;;;;;1.85;1.05;;;;;;;21.04;70.49;100564.28;20939524;28;20068;-67
2023/07/04 00:50:25;;;;;;;2.75;1.10;;;;;;;21.03;70.58;100560.75;20942709;28;20530;-67
2023/07/04 01:00:27;;;;;;;2.05;1.35;;;;;;;21.03;70.46;100565.31;20908140;28;20579;-67
2023/07/04 01:10:33;;;;;;;1.48;0.77;;;;;;;21.04;70.44;100583.25;20933461;28;20424;-67
2023/07/04 01:20:35;;;;;;;1.88;1.05;;;;;;;21.01;70.27;100582.56;20918551;28;20044;-67
2023/07/04 01:30:40;;;;;;;1.95;1.20;;;;;;;20.99;70.33;100554.81;20925630;28;20068;-67
2023/07/04 01:40:42;;;;;;;2.42;0.82;;;;;;;21.00;70.34;100577.31;20940622;28;20442;-67
2023/07/04 01:50:44;;;;;;;2.03;0.95;;;;;;;20.98;70.50;100569.34;20934936;28;20098;-67
2023/07/04 02:00:45;;;;;;;2.78;1.15;;;;;;;20.96;70.42;100560.56;20920470;28;20131;-67
2023/07/04 02:10:47;;;;;;;2.00;0.98;;;;;;;20.97;70.35;100561.38;20942986;28;20072;-67
2023/07/04 02:20:48;;;;;;;1.00;0.88;;;;;;;20.93;70.33;100577.13;20909773;28;20136;-67
2023/07/04 02:30:58;;;;;;;2.17;1.10;;;;;;;20.93;70.26;100570.84;20940684;28;20411;-67
2023/07/04 02:41:01;;;;;;;2.25;1.10;;;;;;;20.91;70.13;100573.75;20960586;28;20490;-67
2023/07/04 02:51:03;;;;;;;1.75;0.85;;;;;;;20.91;70.10;100572.88;20980932;28;20050;-67
2023/07/04 03:01:06;;;;;;;1.85;0.80;;;;;;;20.85;69.87;100566.28;20994213;28;20044;-67
2023/07/04 03:11:08;;;;;;;3.65;1.70;;;;;;;20.88;69.96;100573.22;20991657;28;20051;-67
2023/07/04 03:21:10;;;;;;;1.60;0.90;;;;;;;20.86;69.79;100570.69;20991109;28;20052;-67
2023/07/04 03:31:12;;;;;;;2.22;1.05;;;;;;;20.85;69.45;100587.94;21063838;28;20040;-67
2023/07/04 03:41:14;;;;;;;1.92;1.10;;;;;;;20.82;69.31;100583.69;21076322;28;20101;-67
2023/07/04 03:51:16;;;;;;;2.38;0.90;;;;;;;20.82;69.39;100586.38;21073737;28;20097;-67
2023/07/04 04:01:20;;;;;;;1.40;0.80;;;;;;;20.81;69.37;100573.88;21056497;28;20048;-67
2023/07/04 04:11:21;;;;;;;2.20;1.38;;;;;;;20.81;69.30;100576.56;21073913;28;20131;-67
2023/07/04 04:21:23;;;;;;;2.28;1.00;;;;;;;20.80;69.36;100584.88;21065789;28;20044;-67
2023/07/04 04:31:25;;;;;;;2.13;0.98;;;;;;;20.79;69.51;100585.88;21070852;28;20048;-67
2023/07/04 04:41:29;;;;;;;1.23;0.80;;;;;;;20.78;69.46;100590.41;21071770;28;20130;-67
2023/07/04 04:51:31;;;;;;;2.33;1.15;;;;;;;20.76;69.76;100603.25;20971090;28;20522;-68
2023/07/04 05:01:36;;;;;;;2.83;1.20;;;;;;;20.74;69.98;100602.56;20977857;28;20591;-68
2023/07/04 05:11:38;;;;;;;2.63;1.33;;;;;;;20.73;70.20;100609.81;20986619;28;20502;-68
2023/07/04 05:21:41;;;;;;;1.60;0.88;;;;;;;20.76;70.07;100615.91;20940081;28;20072;-68
2023/07/04 05:31:42;;;;;;;1.77;1.10;;;;;;;20.78;70.02;100616.63;20953250;28;20052;-68
2023/07/04 05:41:44;;;;;;;1.08;0.80;;;;;;;20.80;70.00;100628.16;20937496;28;20048;-67
2023/07/04 05:51:45;;;;;;;1.42;0.90;;;;;;;20.82;70.29;100628.84;20912920;28;20048;-69
2023/07/04 06:01:50;;;;;;;1.20;0.88;;;;;;;20.85;70.53;100640.16;20950403;28;20101;-68
2023/07/04 06:11:53;;;;;;;0.90;0.70;;;;;;;20.91;70.88;100645.94;20944110;28;20060;-68
2023/07/04 06:21:55;;;;;;;2.53;0.70;;;;;;;21.00;71.57;100661.22;20950013;28;20036;-68
2023/07/04 06:31:57;;;;;;;3.30;1.02;;;;;;;21.08;72.14;100657.69;20978653;28;20080;-67
2023/07/04 06:41:58;;;;;;;2.05;0.85;;;;;;;21.15;72.37;100666.84;20966259;28;20414;-69
2023/07/04 06:52:06;;;;;;;2.60;0.80;;;;;;;21.19;72.39;100683.59;20924050;28;20051;-70
2023/07/04 07:02:08;;;;;;;1.65;0.90;;;;;;;21.22;72.63;100686.84;20932462;28;20051;-70
2023/07/04 07:12:11;;;;;;;1.70;0.85;;;;;;;21.28;72.21;100706.97;20938570;28;20080;-69
2023/07/04 07:22:14;;;;;;;0.60;0.50;;;;;;;21.33;71.81;100710.03;20937059;28;20883;-69
2023/07/04 07:32:16;;;;;;;1.48;0.63;;;;;;;21.40;71.29;100702.97;20921609;28;20107;-69
2023/07/04 07:42:18;;;;;;;1.55;0.70;;;;;;;21.46;70.69;100712.28;20926699;28;20076;-68
2023/07/04 07:52:19;;;;;;;1.85;0.80;;;;;;;21.56;70.16;100733.81;20930891;28;20084;-69
2023/07/04 08:02:21;;;;;;;2.03;0.60;;;;;;;21.62;69.78;100737.72;20961829;28;20136;-69
2023/07/04 08:12:23;;;;;;;1.20;0.82;;;;;;;21.49;69.18;100717.38;20946165;28;20494;-69
2023/07/04 08:22:24;;;;;;;1.17;0.80;;;;;;;21.70;69.00;100745.94;20939691;28;20134;-69
2023/07/04 08:32:29;;;;;;;1.02;0.60;;;;;;;21.87;68.33;100734.09;20955151;28;20059;-69
2023/07/04 08:42:32;;;;;;;2.00;0.70;;;;;;;21.77;67.75;100741.53;20952063;28;20117;-69
2023/07/04 08:52:43;;;;;;;1.60;0.70;;;;;;;21.72;68.03;100750.16;20954534;28;20072;-69
2023/07/04 09:03:12;;;;;;;1.40;0.73;;;;;;;21.67;67.84;100755.22;20938352;28;20086;-69
2023/07/04 09:13:27;;;;;;;1.73;0.70;;;;;;;21.62;67.95;100764.81;20908480;28;20052;-70
2023/07/04 09:23:29;;;;;;;3.30;0.93;;;;;;;21.61;68.21;100772.09;20925970;28;20072;-69
2023/07/04 09:33:34;;;;;;;1.27;0.68;;;;;;;21.59;68.54;100796.63;20943283;28;20135;-70
2023/07/04 09:43:36;;;;;;;1.05;0.70;;;;;;;21.67;68.59;100801.28;20940552;28;20052;-68
2023/07/04 09:53:37;;;;;;;1.40;0.70;;;;;;;21.80;68.43;100806.22;20931303;28;20123;-69
2023/07/04 10:03:40;;;;;;;1.42;0.77;;;;;;;21.94;67.91;100807.47;20950680;28;20053;-70
2023/07/04 10:13:42;;;;;;;2.30;1.00;;;;;;;22.07;67.64;100806.97;20947936;28;20048;-70
2023/07/04 10:23:44;;;;;;;3.33;1.08;;;;;;;22.11;67.49;100789.38;20921982;28;20502;-70
2023/07/04 10:33:53;;;;;;;1.85;1.05;;;;;;;22.10;67.05;100800.38;20914384;28;20080;-69
2023/07/04 10:44:00;;;;;;;3.13;1.00;;;;;;;22.01;66.87;100799.50;20943795;28;20062;-69
2023/07/04 10:54:02;;;;;;;2.17;0.73;;;;;;;21.98;66.79;100814.25;20941071;28;20103;-69
2023/07/04 11:04:18;;;;;;;2.15;1.10;;;;;;;21.93;66.72;100826.59;20940807;28;20053;-69
2023/07/04 11:14:28;;;;;;;4.65;1.40;;;;;;;21.92;66.88;100822.19;20897746;28;20085;-68
2023/07/04 11:24:36;;;;;;;3.03;1.10;;;;;;;21.95;66.86;100797.44;20932964;28;20048;-70
2023/07/04 11:34:49;;;;;;;2.33;1.00;;;;;;;22.00;66.08;100827.63;20956356;28;20083;-70
2023/07/04 11:45:06;;;;;;;1.73;0.80;;;;;;;21.97;65.76;100828.81;20940524;28;20090;-70
2023/07/04 11:55:16;;;;;;;3.38;1.33;;;;;;;21.99;65.29;100850.31;20925530;28;20379;-70
2023/07/04 12:05:31;;;;;;;;;;;;;;;21.97;64.55;100860.47;20967549;28;20044;-69
2023/07/04 12:15:34;;;;;;;3.67;1.17;;;;;;;21.99;64.44;100858.44;20949429;28;20528;-70
2023/07/04 12:25:40;;;;;;;3.13;1.40;;;;;;;22.01;64.78;100867.25;20965746;28;20052;-69
2023/07/04 12:35:42;;;;;;;1.98;1.15;;;;;;;22.00;64.72;100850.16;20960158;28;20056;-69
2023/07/04 12:45:44;;;;;;;2.78;1.00;;;;;;;22.01;64.56;100851.00;20960898;28;20080;-70
2023/07/04 12:55:48;;;;;;;2.78;1.00;;;;;;;22.01;63.54;100851.00;20960562;28;20047;-70
2023/07/04 13:05:52;;;;;;;1.73;1.00;;;;;;;22.02;63.55;100852.69;20959591;28;20115;-70
2023/07/04 13:16:29;;;;;;;2.03;1.10;;;;;;;21.99;62.89;100869.28;20958669;28;20051;-69
2023/07/04 13:26:33;;;;;;;2.25;0.90;;;;;;;21.98;62.29;100873.00;20955651;28;20064;-70
2023/07/04 13:36:40;;;;;;;2.45;1.10;;;;;;;21.97;61.81;100876.75;20954940;28;20170;-70
2023/07/04 13:46:42;;;;;;;2.45;1.00;;;;;;;21.96;61.73;100875.91;20951201;28;20056;-69
2023/07/04 13:56:44;;;;;;;2.92;1.00;;;;;;;21.95;62.12;100863.38;20962611;28;20044;-70
2023/07/04 14:06:51;;;;;;;1.83;0.93;;;;;;;21.93;61.96;100881.66;20959693;28;20078;-70
2023/07/04 14:16:54;;;;;;;2.45;1.08;;;;;;;21.93;62.31;100878.09;20952929;28;20055;-69
2023/07/04 14:27:15;;;;;;;1.70;1.00;;;;;;;21.94;62.74;100887.91;20941772;28;20094;-71
2023/07/04 14:37:37;;;;;;;2.65;1.13;;;;;;;21.95;63.13;100873.34;20918242;28;20072;-70
2023/07/04 14:47:38;;;;;;;2.75;1.00;;;;;;;21.94;63.48;100890.63;20924676;28;20410;-69
2023/07/04 14:57:40;;;;;;;2.78;1.10;;;;;;;21.94;62.96;100888.78;20940366;28;20139;-69
2023/07/04 15:07:44;;;;;;;2.83;1.25;;;;;;;21.94;62.62;100887.91;20931047;28;20505;-67
2023/07/04 15:17:46;;;;;;;3.38;1.10;;;;;;;21.95;64.14;100879.63;20921628;28;20099;-66
2023/07/04 15:27:48;;;;;;;2.08;1.23;;;;;;;21.99;65.41;100885.56;20913213;28;20041;-67
2023/07/04 15:37:49;;;;;;;1.65;1.17;;;;;;;22.07;65.13;100890.16;20920742;28;20067;-67
2023/07/04 15:47:51;;;;;;;1.70;0.90;;;;;;;22.10;64.87;100885.28;20931187;28;20106;-67
2023/07/04 15:57:53;;;;;;;2.55;1.10;;;;;;;22.09;65.05;100875.41;20954053;28;20041;-71
2023/07/04 16:07:56;;;;;;;2.72;1.30;;;;;;;22.06;65.15;100870.31;20932692;28;20098;-71
2023/07/04 16:17:58;;;;;;;2.17;1.00;;;;;;;22.04;65.06;100872.34;20956928;28;20040;-70
2023/07/04 16:28:00;;;;;;;2.25;1.13;;;;;;;22.05;64.92;100856.94;20981559;28;20140;-70
2023/07/04 16:38:03;;;;;;;1.77;1.10;;;;;;;21.93;64.74;100843.72;20943929;28;20053;-70
2023/07/04 16:48:05;;;;;;;1.50;0.77;;;;;;;21.99;64.43;100844.91;20904820;28;20049;-70
2023/07/04 16:58:07;;;;;;;4.35;1.15;;;;;;;21.90;64.05;100833.22;20961325;28;20428;-69
2023/07/04 17:08:09;;;;;;;3.70;1.38;;;;;;;21.92;64.23;100847.44;21017558;28;20051;-67
2023/07/04 17:18:11;;;;;;;1.85;0.95;;;;;;;21.92;64.96;100838.44;21009910;28;20056;-67
2023/07/04 17:28:13;;;;;;;2.00;1.23;;;;;;;21.90;64.82;100840.47;20983513;28;20037;-68
2023/07/04 17:38:14;;;;;;;4.15;1.20;;;;;;;21.85;65.12;100852.66;20990763;28;20045;-66
2023/07/04 17:48:16;;;;;;;3.65;1.10;;;;;;;21.79;64.99;100849.75;20982927;28;20060;-66
2023/07/04 17:58:18;;;;;;;6.20;1.80;;;;;;;21.76;65.86;100847.34;20918660;28;20568;-66
2023/07/04 18:08:19;;;;;;;3.83;1.23;;;;;;;21.73;66.23;100851.25;20934694;28;20094;-66
2023/07/04 18:18:23;;;;;;;3.92;1.50;;;;;;;21.70;66.25;100849.72;21045096;28;20052;-67
2023/07/04 18:28:25;;;;;;;6.40;1.80;;;;;;;21.69;67.06;100839.88;21079355;28;20102;-66
2023/07/04 18:38:27;;;;;;;4.72;1.58;;;;;;;21.68;67.16;100840.06;21026967;28;20145;-66
2023/07/04 18:48:29;;;;;;;3.42;1.70;;;;;;;21.64;67.20;100839.53;20969049;28;20044;-66
2023/07/04 18:58:31;;;;;;;4.22;1.65;;;;;;;21.65;66.64;100837.66;20966859;28;20103;-66
2023/07/04 19:08:33;;;;;;;5.80;2.00;;;;;;;21.62;66.33;100819.00;21039443;28;20469;-66
2023/07/04 19:18:35;;;;;;;4.38;1.63;;;;;;;21.59;66.35;100804.75;20989331;28;20044;-66
2023/07/04 19:28:37;;;;;;;3.20;1.40;;;;;;;21.59;66.08;100801.22;20967729;28;20464;-66
2023/07/04 19:38:39;;;;;;;4.03;1.38;;;;;;;21.58;66.10;100796.81;20991215;28;20409;-66
2023/07/04 19:48:40;;;;;;;4.47;2.08;;;;;;;21.56;67.60;100780.72;20943489;28;20087;-66
2023/07/04 19:58:43;;;;;;;3.78;1.77;;;;;;;21.55;69.37;100765.47;20925367;28;20045;-66
2023/07/04 20:08:47;;;;;;;4.38;1.73;;;;;;;21.54;69.85;100750.22;20996989;28;20459;-66
2023/07/04 20:18:49;;;;;;;2.97;1.55;;;;;;;21.45;69.67;100726.84;20978545;28;20102;-66
2023/07/04 20:28:50;;;;;;;3.85;1.60;;;;;;;21.47;69.64;100718.56;20989536;28;20044;-66
2023/07/04 20:38:52;;;;;;;3.45;1.60;;;;;;;21.48;69.45;100704.84;20988020;28;20102;-66
2023/07/04 20:48:54;;;;;;;2.40;1.30;;;;;;;21.47;69.12;100708.56;20985941;28;20060;-66
2023/07/04 20:58:55;;;;;;;2.85;1.33;;;;;;;21.45;69.10;100697.06;20995483;28;20040;-66
2023/07/04 21:08:58;;;;;;;3.03;1.38;;;;;;;21.43;69.11;100681.00;21067470;28;20052;-66
2023/07/04 21:19:00;;;;;;;2.17;1.27;;;;;;;21.44;68.78;100687.25;21069203;28;20131;-66
2023/07/04 21:29:01;;;;;;;2.88;1.20;;;;;;;21.42;68.41;100668.44;21068841;28;20063;-66
2023/07/04 21:39:06;;;;;;;2.00;1.20;;;;;;;21.41;67.97;100663.19;21068490;28;20051;-66
2023/07/04 21:49:07;;;;;;;1.85;1.23;;;;;;;21.39;67.94;100651.69;21067339;28;20044;-66
2023/07/04 21:59:10;;;;;;;1.85;1.10;;;;;;;21.36;68.13;100617.66;21051853;28;20036;-66
2023/07/04 22:09:17;;;;;;;1.33;1.08;;;;;;;21.30;68.13;100599.38;21066068;28;20125;-66
2023/07/04 22:19:18;;;;;;;1.90;1.30;;;;;;;21.32;68.08;100599.22;21065829;28;20121;-66
2023/07/04 22:29:20;;;;;;;1.40;1.00;;;;;;;21.29;68.30;100603.94;21065177;28;20477;-66
2023/07/04 22:39:22;;;;;;;2.15;1.10;;;;;;;21.30;68.49;100599.38;21065245;28;20129;-66
2023/07/04 22:49:23;;;;;;;2.33;1.20;;;;;;;21.28;68.65;100580.59;21064568;28;20101;-67
2023/07/04 22:59:25;;;;;;;2.42;1.30;;;;;;;21.18;69.03;100520.31;21058852;28;20046;-66
2023/07/04 23:09:26;;;;;;;2.33;1.40;;;;;;;21.21;69.28;100498.38;21068073;28;20509;-66
2023/07/04 23:19:28;;;;;;;3.50;1.50;;;;;;;21.25;69.56;100463.66;21078643;28;20071;-66
2023/07/04 23:29:31;;;;;;;2.47;1.50;;;;;;;21.25;69.78;100445.56;21077189;28;20624;-66
2023/07/04 23:39:32;;;;;;;2.35;1.42;;;;;;;21.23;69.71;100436.78;21077633;28;20059;-66
2023/07/04 23:49:34;;;;;;;3.03;1.50;;;;;;;21.21;69.96;100417.16;21001557;28;20052;-66
2023/07/04 23:59:36;;;;;;;2.22;1.48;;;;;;;21.21;70.26;100381.97;20986191;28;20045;-66
